Time;durP1;ratioP1;P1;durP2;ratioP2;P2;SDS_P1;SDS_P2;PMS_P1;PMS_P2;Temp;Humidity;BMP_temperature;BMP_pressure;BME280_temperature;BME280_humidity;BME280_pressure;Samples;Min_cycle;Max_cycle;Signal;HPM_P1;HPM_P2
2023/08/31 00:01:29;;;;;;;3.13;1.65;;;15.00;99.90;;;15.19;100.00;100302.28;5298953;28;20047;-49
2023/08/31 00:04:02;;;;;;;3.10;1.48;;;15.00;99.90;;;15.20;100.00;100297.91;5285403;28;20050;-50
2023/08/31 00:06:35;;;;;;;2.53;1.63;;;15.00;99.90;;;15.20;100.00;100298.78;5291568;28;20090;-50
2023/08/31 00:09:09;;;;;;;2.75;1.55;;;15.00;99.90;;;15.22;100.00;100295.28;5287177;27;20039;-49
2023/08/31 00:11:41;;;;;;;3.78;1.50;;;15.00;99.90;;;15.22;100.00;100301.44;5295701;28;20045;-50
2023/08/31 00:14:14;;;;;;;1.85;1.40;;;15.00;99.90;;;15.23;100.00;100297.94;5296549;28;20495;-50
2023/08/31 00:16:47;;;;;;;2.40;1.13;;;15.00;99.90;;;15.23;100.00;100295.31;5294710;28;20051;-51
2023/08/31 00:19:20;;;;;;;2.22;1.40;;;15.00;99.90;;;15.23;100.00;100297.94;5288855;28;20058;-49
2023/08/31 00:21:52;;;;;;;3.67;1.60;;;15.00;99.90;;;15.23;100.00;100297.06;5301303;28;20051;-50
2023/08/31 00:24:29;;;;;;;1.42;1.15;;;15.00;99.90;;;15.23;100.00;100291.78;5289768;28;20062;-49
2023/08/31 00:27:03;;;;;;;2.00;1.25;;;15.00;99.90;;;15.22;100.00;100290.91;5300972;27;20055;-50
2023/08/31 00:29:36;;;;;;;3.85;1.40;;;15.00;99.90;;;15.22;100.00;100293.53;5295461;28;20075;-49
2023/08/31 00:32:13;;;;;;;1.92;1.30;;;15.00;99.90;;;15.23;100.00;100299.69;5303719;28;20622;-50
2023/08/31 00:34:46;;;;;;;3.25;1.10;;;15.00;99.90;;;15.23;100.00;100292.69;5295994;28;20043;-49
2023/08/31 00:37:21;;;;;;;1.95;1.10;;;15.10;99.90;;;15.25;100.00;100292.69;5296560;27;20055;-49
2023/08/31 00:39:54;;;;;;;1.33;1.20;;;15.10;99.90;;;15.25;100.00;100290.06;5302730;27;20052;-50
2023/08/31 00:42:29;;;;;;;2.10;1.60;;;15.00;99.90;;;15.26;100.00;100297.97;5307859;27;20553;-49
2023/08/31 00:45:02;;;;;;;2.78;1.30;;;15.10;99.90;;;15.27;100.00;100289.22;5305363;27;20106;-49
2023/08/31 00:47:36;;;;;;;1.65;1.15;;;15.10;99.90;;;15.28;100.00;100292.72;5286862;28;20092;-50
2023/08/31 00:50:10;;;;;;;2.78;1.42;;;15.10;99.90;;;15.30;100.00;100286.59;5307778;27;20039;-49
2023/08/31 00:52:44;;;;;;;1.73;1.40;;;15.10;99.90;;;15.30;100.00;100289.22;5299735;27;20411;-50
2023/08/31 00:55:17;;;;;;;2.60;1.38;;;15.10;99.90;;;15.29;100.00;100287.47;5299900;27;20062;-49
2023/08/31 00:57:50;;;;;;;2.38;1.08;;;15.10;99.90;;;15.29;100.00;100290.09;5290474;27;20055;-49
2023/08/31 01:00:29;;;;;;;4.00;1.40;;;15.10;99.90;;;15.31;100.00;100290.09;5307661;27;20530;-50
2023/08/31 01:03:13;;;;;;;2.53;1.20;;;15.10;99.90;;;15.31;100.00;100280.47;5308241;27;20051;-51
2023/08/31 01:05:53;;;;;;;2.58;1.63;;;15.10;99.90;;;15.33;100.00;100285.75;5299119;27;20376;-51
2023/08/31 01:08:43;;;;;;;1.35;1.10;;;15.10;99.90;;;15.32;100.00;100282.25;5295603;27;20040;-50
2023/08/31 01:11:27;;;;;;;2.10;1.40;;;15.10;99.90;;;15.33;100.00;100294.53;5291321;27;20039;-50
2023/08/31 01:14:12;;;;;;;2.38;1.30;;;15.10;99.90;;;15.34;100.00;100304.16;5297760;27;20053;-50
2023/08/31 01:16:49;;;;;;;2.78;1.20;;;15.10;99.90;;;15.35;100.00;100297.16;5299556;27;20055;-50
2023/08/31 01:19:43;;;;;;;1.98;1.33;;;15.10;99.90;;;15.33;100.00;100294.53;5295356;27;20084;-49
2023/08/31 01:22:28;;;;;;;2.22;1.75;;;15.10;99.90;;;15.32;100.00;100290.13;5295407;27;20454;-50
2023/08/31 01:25:04;;;;;;;3.35;1.27;;;15.10;99.90;;;15.31;100.00;100290.97;5297275;27;20055;-50
2023/08/31 01:27:37;;;;;;;1.85;1.27;;;15.10;99.90;;;15.31;100.00;100296.22;5303525;27;20040;-49
2023/08/31 01:30:11;;;;;;;3.30;1.42;;;15.10;99.90;;;15.32;100.00;100298.03;5303723;27;20108;-54
2023/08/31 01:32:46;;;;;;;3.28;1.40;;;15.10;99.90;;;15.33;100.00;100299.78;5299029;27;20047;-49
2023/08/31 01:35:19;;;;;;;1.23;1.10;;;15.10;99.90;;;15.34;100.00;100300.66;5295582;27;20091;-49
2023/08/31 01:37:58;;;;;;;1.70;1.02;;;15.10;99.90;;;15.32;100.00;100300.66;5295675;27;20058;-49
2023/08/31 01:40:41;;;;;;;1.92;1.20;;;15.10;99.90;;;15.31;100.00;100306.72;5299583;27;20495;-50
2023/08/31 01:43:15;;;;;;;1.30;1.00;;;15.10;99.90;;;15.28;100.00;100311.97;5307248;27;20681;-49
2023/08/31 01:45:49;;;;;;;3.20;1.27;;;15.10;99.90;;;15.29;100.00;100308.47;5307001;27;20035;-50
2023/08/31 01:48:21;;;;;;;1.50;1.25;;;15.10;99.90;;;15.27;100.00;100310.22;5294438;27;20047;-51
2023/08/31 01:50:53;;;;;;;1.33;1.00;;;15.10;99.90;;;15.26;100.00;100305.84;5299849;27;20093;-50
2023/08/31 01:53:26;;;;;;;2.05;1.10;;;15.10;99.90;;;15.23;100.00;100311.06;5298516;27;20092;-50
2023/08/31 01:56:00;;;;;;;1.58;1.08;;;15.00;99.90;;;15.20;100.00;100314.53;5296659;27;20054;-48
2023/08/31 01:58:32;;;;;;;1.67;1.00;;;15.00;99.90;;;15.18;100.00;100315.38;5300830;27;20092;-48
2023/08/31 02:01:04;;;;;;;1.40;1.17;;;15.00;99.90;;;15.13;100.00;100318.00;5295942;27;20047;-49
2023/08/31 02:03:37;;;;;;;2.63;1.27;;;15.00;99.90;;;15.09;100.00;100320.56;5297090;27;20062;-49
2023/08/31 02:06:09;;;;;;;4.50;1.30;;;14.90;99.90;;;15.03;100.00;100318.75;5293999;27;20071;-49
2023/08/31 02:08:44;;;;;;;2.20;1.13;;;14.80;99.90;;;14.98;100.00;100316.94;5285771;27;20483;-50
2023/08/31 02:11:17;;;;;;;1.80;1.38;;;14.80;99.90;;;14.92;100.00;100318.66;5297457;27;20050;-50
2023/08/31 02:13:50;;;;;;;1.75;1.20;;;14.80;99.90;;;14.86;100.00;100318.59;5297926;27;20054;-52
2023/08/31 02:16:22;;;;;;;1.70;1.60;;;14.70;99.90;;;14.82;100.00;100322.06;5284985;28;20419;-50
2023/08/31 02:18:55;;;;;;;2.05;1.50;;;14.60;99.90;;;14.78;100.00;100325.50;5294429;27;20660;-51
2023/08/31 02:21:28;;;;;;;3.65;1.23;;;14.60;99.90;;;14.75;100.00;100329.88;5301097;27;20063;-51
2023/08/31 02:24:01;;;;;;;2.90;1.00;;;14.60;99.90;;;14.70;100.00;100327.19;5309334;27;20054;-51
2023/08/31 02:26:37;;;;;;;2.83;1.52;;;14.50;99.90;;;14.68;100.00;100330.66;5291586;27;20396;-49
2023/08/31 02:29:09;;;;;;;1.98;1.30;;;14.50;99.90;;;14.65;100.00;100339.34;5286979;27;20397;-51
2023/08/31 02:31:42;;;;;;;1.45;1.13;;;14.50;99.90;;;14.61;100.00;100333.22;5296518;27;20040;-49
2023/08/31 02:34:14;;;;;;;1.85;1.13;;;14.50;99.90;;;14.57;100.00;100330.53;5301746;27;20523;-51
2023/08/31 02:36:48;;;;;;;1.40;1.00;;;14.40;99.90;;;14.52;100.00;100329.59;5297200;27;20054;-48
2023/08/31 02:39:20;;;;;;;1.52;1.13;;;14.40;99.90;;;14.46;100.00;100338.28;5305141;27;20047;-51
2023/08/31 02:41:54;;;;;;;2.80;1.40;;;14.30;99.90;;;14.43;100.00;100332.09;5297266;27;20131;-51
2023/08/31 02:44:27;;;;;;;1.70;1.23;;;14.30;99.90;;;14.39;100.00;100342.53;5294714;27;20050;-49
2023/08/31 02:46:59;;;;;;;2.40;1.52;;;14.20;99.90;;;14.32;100.00;100332.81;5292637;27;20414;-50
2023/08/31 02:49:32;;;;;;;2.63;1.40;;;14.20;99.90;;;14.29;100.00;100335.44;5298947;27;20061;-50
2023/08/31 02:52:05;;;;;;;1.98;1.30;;;14.10;99.90;;;14.26;100.00;100337.13;5304006;27;20047;-50
2023/08/31 02:54:38;;;;;;;2.10;1.38;;;14.10;99.90;;;14.23;100.00;100340.59;5285047;27;20040;-49
2023/08/31 02:57:11;;;;;;;2.35;1.40;;;14.10;99.90;;;14.23;100.00;100340.59;5310198;27;20445;-50
2023/08/31 02:59:44;;;;;;;1.50;1.20;;;14.10;99.90;;;14.22;100.00;100336.22;5291649;27;20046;-50
2023/08/31 03:02:16;;;;;;;2.03;1.40;;;14.10;99.90;;;14.23;100.00;100345.84;5305142;27;20803;-50
2023/08/31 03:04:49;;;;;;;3.65;1.27;;;14.00;99.90;;;14.24;100.00;100341.47;5305792;27;20047;-49
2023/08/31 03:07:21;;;;;;;2.15;1.38;;;14.10;99.90;;;14.24;100.00;100337.09;5292602;27;20451;-50
2023/08/31 03:09:54;;;;;;;2.55;1.42;;;14.10;99.90;;;14.25;100.00;100346.72;5292727;27;20043;-51
2023/08/31 03:12:29;;;;;;;2.95;1.33;;;14.10;99.90;;;14.26;100.00;100332.75;5284457;27;20129;-50
2023/08/31 03:15:01;;;;;;;3.03;1.23;;;14.10;99.90;;;14.29;100.00;100339.78;5301800;27;20047;-50
2023/08/31 03:17:33;;;;;;;2.03;1.15;;;14.10;99.90;;;14.29;100.00;100343.28;5305127;27;20047;-49
2023/08/31 03:20:08;;;;;;;3.40;1.40;;;14.10;99.90;;;14.29;100.00;100332.81;5296795;27;20078;-49
2023/08/31 03:22:41;;;;;;;2.15;1.20;;;14.20;99.90;;;14.28;100.00;100333.66;5305742;27;20039;-50
2023/08/31 03:25:13;;;;;;;1.60;1.20;;;14.10;99.90;;;14.28;100.00;100333.66;5302293;27;20047;-49
2023/08/31 03:27:47;;;;;;;2.55;1.90;;;14.20;99.90;;;14.31;100.00;100333.69;5295263;27;20407;-49
2023/08/31 03:30:23;;;;;;;3.97;1.60;;;14.20;99.90;;;14.32;100.00;100330.22;5303276;27;20546;-49
2023/08/31 03:32:55;;;;;;;2.40;1.30;;;14.20;99.90;;;14.36;100.00;100337.25;5304756;27;20047;-49
2023/08/31 03:35:28;;;;;;;4.18;1.42;;;14.20;99.90;;;14.39;100.00;100339.91;5292350;27;20577;-49
2023/08/31 03:38:04;;;;;;;1.80;1.40;;;14.20;99.90;;;14.44;100.00;100341.72;5292120;27;20325;-49
2023/08/31 03:40:37;;;;;;;2.13;1.40;;;14.30;99.90;;;14.48;100.00;100343.56;5289631;27;20043;-50
2023/08/31 03:43:10;;;;;;;3.17;1.52;;;14.30;99.90;;;14.51;100.00;100344.44;5292544;27;20062;-50
2023/08/31 03:45:43;;;;;;;2.08;1.27;;;14.40;99.90;;;14.52;100.00;100337.47;5298289;27;20047;-51
2023/08/31 03:48:15;;;;;;;3.47;1.60;;;14.40;99.90;;;14.54;100.00;100346.22;5301878;27;20092;-50
2023/08/31 03:50:51;;;;;;;2.17;1.25;;;14.40;99.90;;;14.56;100.00;100345.41;5299904;27;20077;-50
2023/08/31 03:53:23;;;;;;;1.88;1.30;;;14.40;99.90;;;14.60;100.00;100346.28;5304290;27;20522;-49
2023/08/31 03:55:59;;;;;;;3.13;1.30;;;14.40;99.90;;;14.64;100.00;100348.09;5303975;27;20042;-50
2023/08/31 03:58:33;;;;;;;1.95;1.63;;;14.50;99.90;;;14.69;100.00;100350.78;5291992;28;20430;-50
2023/08/31 04:01:06;;;;;;;2.20;1.50;;;14.50;99.90;;;14.71;100.00;100344.69;5291955;27;20047;-49
2023/08/31 04:03:38;;;;;;;3.05;1.45;;;14.50;99.90;;;14.74;100.00;100352.59;5289877;28;20050;-51
2023/08/31 04:06:11;;;;;;;2.20;1.50;;;14.60;99.90;;;14.74;100.00;100349.97;5304201;28;20049;-48
2023/08/31 04:08:46;;;;;;;2.17;1.60;;;14.60;99.90;;;14.76;100.00;100350.84;5304724;28;20490;-50
2023/08/31 04:11:19;;;;;;;2.95;1.65;;;14.60;99.90;;;14.78;100.00;100346.50;5297544;27;20523;-50
2023/08/31 04:13:53;;;;;;;2.80;1.65;;;14.60;99.90;;;14.79;100.00;100355.25;5296391;27;20040;-49
2023/08/31 04:16:28;;;;;;;1.88;1.40;;;14.60;99.90;;;14.75;100.00;100362.22;5316701;27;20579;-49
2023/08/31 04:19:01;;;;;;;2.40;1.42;;;14.60;99.90;;;14.76;100.00;100356.09;5291900;27;20068;-50
2023/08/31 04:21:33;;;;;;;2.25;1.55;;;14.60;99.90;;;14.79;100.00;100361.38;5300639;27;20050;-51
2023/08/31 04:24:06;;;;;;;2.40;1.38;;;14.60;99.90;;;14.82;100.00;100357.91;5296857;27;20063;-54
2023/08/31 04:26:39;;;;;;;2.92;1.90;;;14.70;99.90;;;14.83;100.00;100355.31;5301013;27;20371;-50
2023/08/31 04:29:13;;;;;;;2.33;1.48;;;14.70;99.90;;;14.86;100.00;100355.31;5306050;27;20062;-50
2023/08/31 04:31:45;;;;;;;2.20;1.25;;;14.70;99.90;;;14.87;100.00;100357.09;5308602;27;20058;-50
2023/08/31 04:34:17;;;;;;;2.50;1.50;;;14.70;99.90;;;14.89;100.00;100363.25;5299646;27;20504;-49
2023/08/31 04:36:50;;;;;;;2.47;1.55;;;14.70;99.90;;;14.91;100.00;100371.13;5301182;27;20050;-51
2023/08/31 04:39:22;;;;;;;3.83;1.92;;;14.70;99.90;;;14.92;100.00;100370.25;5296079;27;20043;-49
2023/08/31 04:41:54;;;;;;;3.58;1.73;;;14.70;99.90;;;14.90;100.00;100375.50;5287590;27;20532;-50
2023/08/31 04:44:31;;;;;;;2.85;1.98;;;14.70;99.90;;;14.90;100.00;100379.88;5303826;27;20055;-50
2023/08/31 04:47:04;;;;;;;3.63;1.60;;;14.70;99.90;;;14.90;100.00;100383.38;5295406;27;20040;-51
2023/08/31 04:49:36;;;;;;;3.38;1.70;;;14.70;99.90;;;14.91;100.00;100385.13;5304448;27;20032;-50
2023/08/31 04:52:09;;;;;;;2.67;1.73;;;14.70;99.90;;;14.90;100.00;100383.38;5301652;27;20039;-48
2023/08/31 04:54:41;;;;;;;2.97;1.70;;;14.80;99.90;;;14.89;100.00;100389.47;5308037;27;20062;-49
2023/08/31 04:57:14;;;;;;;2.65;1.48;;;14.70;99.90;;;14.89;100.00;100392.09;5298952;27;20531;-50
2023/08/31 04:59:48;;;;;;;4.15;1.45;;;14.70;99.90;;;14.91;100.00;100394.75;5287057;28;20043;-50
2023/08/31 05:02:20;;;;;;;2.33;1.48;;;14.70;99.90;;;14.88;100.00;100400.84;5286519;28;20052;-50
2023/08/31 05:04:52;;;;;;;2.53;1.67;;;14.70;99.90;;;14.87;100.00;100404.34;5286977;28;20051;-49
2023/08/31 05:07:25;;;;;;;2.92;1.90;;;14.70;99.90;;;14.85;100.00;100403.44;5286185;28;20408;-51
2023/08/31 05:09:57;;;;;;;2.33;1.60;;;14.70;99.90;;;14.84;100.00;100403.41;5286840;28;20039;-49
2023/08/31 05:12:32;;;;;;;2.78;1.60;;;14.70;99.90;;;14.82;100.00;100405.16;5286612;28;20084;-50
2023/08/31 05:15:09;;;;;;;2.70;1.45;;;14.70;99.90;;;14.77;100.00;100412.97;5286263;28;20504;-49
2023/08/31 05:17:41;;;;;;;2.15;1.40;;;14.70;99.90;;;14.77;100.00;100423.44;5286181;28;20047;-50
2023/08/31 05:20:14;;;;;;;1.83;1.40;;;14.60;99.90;;;14.75;100.00;100430.44;5286110;28;20040;-49
2023/08/31 05:22:46;;;;;;;3.63;1.45;;;14.60;99.90;;;14.76;100.00;100434.81;5285233;28;20051;-49
2023/08/31 05:25:19;;;;;;;1.88;1.30;;;14.60;99.90;;;14.74;100.00;100433.94;5285114;28;20043;-50
2023/08/31 05:27:51;;;;;;;2.75;1.85;;;14.60;99.90;;;14.77;100.00;100430.44;5284279;28;20389;-49
2023/08/31 05:30:25;;;;;;;2.50;1.60;;;14.60;99.90;;;14.76;100.00;100440.06;5283821;28;20328;-50
2023/08/31 05:33:01;;;;;;;2.20;1.33;;;14.60;99.90;;;14.80;100.00;100446.22;5279613;28;20051;-49
2023/08/31 05:35:33;;;;;;;1.98;1.50;;;14.60;99.90;;;14.80;100.00;100444.50;5285580;28;20051;-48
2023/08/31 05:38:06;;;;;;;1.98;1.30;;;14.60;99.90;;;14.80;100.00;100435.72;5283804;28;20130;-49
2023/08/31 05:40:45;;;;;;;3.00;1.52;;;14.60;99.90;;;14.77;100.00;100447.06;5285249;28;20045;-50
2023/08/31 05:43:18;;;;;;;3.38;1.50;;;14.60;99.90;;;14.75;100.00;100435.69;5284484;28;20054;-49
2023/08/31 05:45:52;;;;;;;2.05;1.40;;;14.60;99.90;;;14.75;100.00;100446.19;5285815;28;20050;-50
2023/08/31 05:48:24;;;;;;;4.43;1.60;;;14.60;99.90;;;14.76;100.00;100445.31;5285687;28;20071;-49
2023/08/31 05:51:00;;;;;;;3.13;1.70;;;14.60;99.90;;;14.77;100.00;100447.06;5286778;28;20028;-49
2023/08/31 05:53:32;;;;;;;2.75;1.60;;;14.60;99.90;;;14.79;100.00;100450.59;5285610;28;20051;-49
2023/08/31 05:56:05;;;;;;;2.00;1.30;;;14.60;99.90;;;14.83;100.00;100449.78;5283656;28;20541;-48
2023/08/31 05:58:38;;;;;;;2.90;1.70;;;14.60;99.90;;;14.88;100.00;100448.09;5285018;28;20050;-49
2023/08/31 06:01:12;;;;;;;4.45;1.88;;;14.70;99.90;;;15.01;100.00;100461.34;5285142;28;20488;-48
2023/08/31 06:03:44;;;;;;;2.60;1.60;;;14.80;99.90;;;15.17;100.00;100455.41;5286193;28;20047;-49
2023/08/31 06:06:16;;;;;;;2.63;1.73;;;14.90;99.90;;;15.41;100.00;100454.78;5284688;28;20108;-49
2023/08/31 06:08:49;;;;;;;5.05;1.83;;;15.10;99.90;;;15.75;100.00;100455.97;5284741;28;20051;-49
2023/08/31 06:11:21;;;;;;;3.42;1.90;;;15.40;99.90;;;16.16;100.00;100458.03;5282763;28;20046;-48
2023/08/31 06:13:53;;;;;;;4.47;1.88;;;15.70;99.90;;;16.62;100.00;100460.94;5284098;28;20130;-49
2023/08/31 06:16:27;;;;;;;6.03;2.00;;;16.10;99.90;;;17.04;100.00;100471.69;5279933;28;20047;-49
2023/08/31 06:19:03;;;;;;;4.50;2.13;;;16.50;99.90;;;17.51;100.00;100470.91;5285177;28;20407;-51
2023/08/31 06:21:35;;;;;;;2.25;1.60;;;16.90;99.90;;;17.99;100.00;100473.59;5282677;28;20035;-50
2023/08/31 06:24:10;;;;;;;4.50;1.92;;;17.40;99.90;;;18.44;100.00;100468.25;5284080;28;20093;-51
2023/08/31 06:26:45;;;;;;;2.25;1.40;;;17.80;99.90;;;18.92;100.00;100484.88;5277988;28;20043;-51
2023/08/31 06:29:18;;;;;;;3.00;1.35;;;18.20;99.90;;;19.32;100.00;100481.16;5284110;28;20040;-50
2023/08/31 06:31:52;;;;;;;2.95;1.40;;;18.60;99.90;;;19.63;100.00;100487.16;5283789;28;20089;-51
2023/08/31 06:34:24;;;;;;;2.53;1.35;;;19.00;99.90;;;19.81;97.22;100484.34;5281604;28;20315;-50
2023/08/31 06:36:58;;;;;;;4.78;1.40;;;19.20;99.90;;;19.99;96.40;100491.25;5282603;28;20051;-51
2023/08/31 06:39:30;;;;;;;1.98;1.00;;;19.40;99.90;;;20.20;95.61;100490.19;5284557;28;20512;-52
2023/08/31 06:42:03;;;;;;;2.25;1.10;;;19.60;99.90;;;20.39;94.44;100485.59;5284025;28;20101;-50
2023/08/31 06:44:36;;;;;;;3.35;1.27;;;19.80;99.90;;;20.50;93.79;100487.28;5284653;28;20070;-50
2023/08/31 06:47:10;;;;;;;4.55;1.50;;;19.90;99.90;;;20.67;93.13;100483.56;5284897;28;20408;-52
2023/08/31 06:49:42;;;;;;;;;;;20.10;99.90;;;20.90;92.89;100480.63;5285474;28;20108;-51
2023/08/31 06:52:15;;;;;;;3.15;1.20;;;20.30;99.90;;;21.15;91.56;100479.44;5284813;28;19927;-51
2023/08/31 06:54:48;;;;;;;3.30;1.10;;;20.50;99.90;;;21.35;90.28;100484.50;5284724;28;20039;-51
2023/08/31 06:57:20;;;;;;;2.92;1.13;;;20.70;99.90;;;21.58;89.11;100490.34;5284008;28;20051;-52
2023/08/31 06:59:53;;;;;;;2.97;0.90;;;20.90;99.70;;;21.76;88.08;100486.50;5284950;28;20032;-51
2023/08/31 07:02:28;;;;;;;5.35;1.23;;;21.10;99.20;;;21.86;87.49;100490.78;5284545;28;20052;-51
2023/08/31 07:05:01;;;;;;;1.50;0.95;;;21.20;99.00;;;21.76;87.12;100491.81;5284683;28;20497;-51
2023/08/31 07:07:33;;;;;;;3.35;1.00;;;21.20;98.60;;;21.51;86.99;100493.94;5282483;28;20039;-49
2023/08/31 07:10:07;;;;;;;2.35;1.10;;;21.00;98.20;;;21.39;88.11;100499.47;5283967;28;20047;-50
2023/08/31 07:12:39;;;;;;;2.38;0.95;;;20.90;98.70;;;21.43;88.31;100492.31;5284435;28;20047;-50
2023/08/31 07:15:11;;;;;;;1.80;0.88;;;20.90;98.80;;;21.56;87.84;100489.47;5283623;28;20056;-50
2023/08/31 07:17:45;;;;;;;2.65;0.95;;;20.90;98.60;;;21.66;87.56;100495.53;5282800;28;20048;-50
2023/08/31 07:20:18;;;;;;;2.97;1.00;;;21.00;98.60;;;21.80;87.19;100493.53;5280535;28;20126;-50
2023/08/31 07:22:54;;;;;;;4.47;1.05;;;21.10;98.50;;;21.99;87.83;100485.28;5283815;28;20492;-51
2023/08/31 07:25:27;;;;;;;2.78;0.95;;;21.30;98.70;;;22.10;87.63;100496.59;5281451;28;20043;-50
2023/08/31 07:27:59;;;;;;;1.60;0.90;;;21.40;98.60;;;22.23;86.73;100498.13;5283814;28;20053;-50
2023/08/31 07:30:33;;;;;;;2.60;0.98;;;21.50;98.20;;;22.41;87.35;100502.25;5283881;28;20059;-51
2023/08/31 07:33:10;;;;;;;3.08;0.95;;;21.60;98.70;;;22.62;86.51;100506.25;5283916;28;20047;-49
2023/08/31 07:35:42;;;;;;;2.28;0.95;;;21.90;98.00;;;22.84;86.40;100514.72;5283415;28;20043;-50
2023/08/31 07:38:14;;;;;;;3.00;1.20;;;22.10;98.00;;;22.97;86.31;100511.81;5284050;28;20049;-50
2023/08/31 07:40:50;;;;;;;3.08;0.90;;;22.20;97.90;;;23.02;85.01;100515.25;5283963;28;20046;-50
2023/08/31 07:43:22;;;;;;;2.35;0.90;;;22.30;97.20;;;23.05;84.53;100510.75;5283932;28;20059;-51
2023/08/31 07:45:55;;;;;;;2.35;1.10;;;22.30;96.90;;;23.17;84.07;100513.16;5283528;28;20050;-50
2023/08/31 07:48:29;;;;;;;1.08;0.70;;;22.40;96.80;;;23.31;83.13;100520.84;5284091;28;20534;-49
2023/08/31 07:51:03;;;;;;;2.92;0.82;;;22.50;96.40;;;23.49;83.03;100516.00;5284120;28;20042;-50
2023/08/31 07:53:35;;;;;;;2.38;0.80;;;22.70;96.30;;;23.65;82.04;100520.97;5283446;28;20070;-50
2023/08/31 07:56:09;;;;;;;1.40;0.68;;;22.80;95.80;;;23.80;81.65;100520.66;5283283;28;20048;-50
2023/08/31 07:58:41;;;;;;;1.60;0.70;;;22.90;95.60;;;23.93;80.72;100526.50;5283931;28;20050;-50
2023/08/31 08:01:14;;;;;;;2.15;0.70;;;23.00;95.20;;;24.04;80.10;100519.16;5284036;28;20139;-50
2023/08/31 08:03:48;;;;;;;1.95;0.90;;;23.10;94.80;;;24.20;80.41;100531.19;5275547;28;20400;-49
2023/08/31 08:06:20;;;;;;;2.35;0.70;;;23.20;94.90;;;24.41;79.97;100527.13;5282375;28;20051;-50
2023/08/31 08:08:53;;;;;;;2.35;0.68;;;23.40;94.80;;;24.30;79.43;100530.00;5283497;28;20138;-50
2023/08/31 08:11:25;;;;;;;1.23;0.75;;;23.30;94.40;;;23.89;80.89;100533.72;5283534;28;20047;-50
2023/08/31 08:13:58;;;;;;;1.42;0.73;;;23.10;94.60;;;23.67;82.01;100545.75;5283627;28;20047;-50
2023/08/31 08:16:30;;;;;;;1.60;0.93;;;22.90;95.00;;;23.50;81.72;100536.34;5282856;28;20047;-50
2023/08/31 08:19:06;;;;;;;2.80;0.80;;;22.70;94.90;;;23.66;82.22;100544.88;5283486;28;20576;-49
2023/08/31 08:21:39;;;;;;;1.85;0.93;;;22.60;95.30;;;23.93;81.66;100543.41;5283580;28;20432;-49
2023/08/31 08:24:11;;;;;;;3.05;1.00;;;22.70;95.40;;;24.03;81.22;100538.72;5283607;28;20052;-51
2023/08/31 08:26:43;;;;;;;1.83;1.10;;;22.70;95.20;;;24.09;80.52;100544.75;5282975;28;20396;-51
2023/08/31 08:29:16;;;;;;;4.13;0.93;;;22.80;95.00;;;23.91;80.46;100539.88;5283751;28;20054;-50
2023/08/31 08:31:48;;;;;;;1.08;0.73;;;22.70;94.80;;;23.73;81.63;100534.97;5274900;28;20039;-50
2023/08/31 08:34:22;;;;;;;2.63;0.75;;;22.50;95.10;;;23.61;82.24;100544.16;5283432;28;20058;-49
2023/08/31 08:36:57;;;;;;;1.85;0.65;;;22.40;95.40;;;23.35;82.02;100542.03;5284442;28;20075;-49
2023/08/31 08:39:29;;;;;;;1.88;0.70;;;22.30;95.30;;;23.35;82.83;100542.03;5283113;28;20064;-50
2023/08/31 08:42:06;;;;;;;2.65;0.70;;;22.20;95.50;;;24.44;81.46;100534.13;5283664;28;20036;-51
2023/08/31 08:44:38;;;;;;;2.08;0.80;;;22.70;95.80;;;26.05;76.94;100539.19;5283451;28;20527;-51
2023/08/31 08:47:15;;;;;;;1.80;0.60;;;23.60;94.80;;;27.29;73.03;100543.72;5282805;28;20583;-50
2023/08/31 08:49:49;;;;;;;2.40;0.80;;;24.70;93.50;;;28.49;69.07;100538.91;5283359;28;20428;-52
2023/08/31 08:52:22;;;;;;;2.85;0.60;;;25.70;91.80;;;29.55;65.65;100548.47;5282856;28;20047;-51
2023/08/31 08:54:56;;;;;;;2.05;0.63;;;26.60;89.80;;;30.25;62.41;100555.75;5283510;28;20534;-52
2023/08/31 08:57:29;;;;;;;1.10;0.68;;;27.20;85.70;;;30.66;60.49;100544.69;5285138;28;20052;-52
2023/08/31 09:00:02;;;;;;;2.70;0.85;;;27.70;81.80;;;30.76;60.23;100545.97;5288682;28;20396;-53
2023/08/31 09:02:35;;;;;;;1.08;0.68;;;27.90;79.80;;;30.82;59.63;100545.63;5287370;28;20534;-57
2023/08/31 09:05:09;;;;;;;3.25;0.90;;;28.00;78.30;;;30.59;59.93;100559.41;5287112;28;20043;-57
2023/08/31 09:08:02;;;;;;;1.20;0.65;;;28.00;77.40;;;29.63;60.67;100559.69;5285281;28;20047;-56
2023/08/31 09:10:37;;;;;;;2.10;0.70;;;27.60;76.30;;;28.76;61.92;100556.47;5285969;28;20044;-56
2023/08/31 09:13:11;;;;;;;1.95;0.70;;;27.10;76.50;;;27.71;63.90;100567.13;5286780;28;20048;-55
2023/08/31 09:15:47;;;;;;;;;;;26.40;77.50;;;26.70;65.17;100560.13;5284842;28;20044;-56
2023/08/31 09:18:25;;;;;;;0.88;0.50;;;25.60;77.80;;;25.93;66.95;100551.13;5277227;28;19927;-56
2023/08/31 09:20:59;;;;;;;1.70;0.65;;;24.90;79.20;;;25.47;68.61;100553.47;5286973;28;20039;-56
2023/08/31 09:23:31;;;;;;;;;;;24.50;80.80;;;25.10;69.05;100550.13;5286656;28;20138;-56
2023/08/31 09:26:06;;;;;;;2.13;0.60;;;24.20;81.50;;;24.73;69.60;100541.38;5286145;28;19919;-55
2023/08/31 09:28:41;;;;;;;;;;;23.80;81.80;;;24.21;71.33;100548.03;5287083;28;20139;-55
2023/08/31 09:31:17;;;;;;;0.95;0.70;;;23.50;83.10;;;23.94;73.64;100550.47;5288062;27;19920;-55
2023/08/31 09:33:53;;;;;;;0.85;0.60;;;23.20;85.10;;;23.82;74.30;100550.75;5286032;28;20061;-55
2023/08/31 09:36:28;;;;;;;1.15;0.80;;;23.00;86.10;;;23.65;74.74;100558.22;5285735;28;20047;-55
2023/08/31 09:39:00;;;;;;;1.92;0.70;;;22.90;86.60;;;23.49;74.22;100553.25;5286829;28;20040;-54
2023/08/31 09:41:33;;;;;;;2.05;0.80;;;22.70;86.40;;;23.37;74.60;100558.81;5286331;28;20058;-55
2023/08/31 09:44:19;;;;;;;0.93;0.70;;;22.60;86.50;;;23.31;75.23;100555.41;5286171;28;20048;-55
2023/08/31 09:46:53;;;;;;;0.80;0.70;;;22.50;87.30;;;23.25;76.58;100553.75;5284540;28;20043;-55
2023/08/31 09:49:26;;;;;;;2.85;0.70;;;22.50;88.40;;;23.14;76.76;100555.75;5285750;28;20143;-55
2023/08/31 09:52:05;;;;;;;1.55;0.60;;;22.40;89.00;;;23.16;77.06;100552.19;5285830;28;20031;-55
2023/08/31 09:54:38;;;;;;;0.95;0.70;;;22.40;89.50;;;23.30;76.68;100551.88;5286335;28;20085;-55
2023/08/31 09:57:15;;;;;;;3.03;0.63;;;22.50;89.60;;;23.30;76.79;100559.88;5284895;28;20039;-55
2023/08/31 09:59:49;;;;;;;2.22;0.60;;;22.50;89.50;;;23.17;77.23;100555.72;5285257;28;20044;-57
2023/08/31 10:02:21;;;;;;;4.40;0.77;;;22.40;89.60;;;23.06;77.01;100552.38;5284796;28;20040;-55
2023/08/31 10:04:54;;;;;;;0.73;0.60;;;22.40;89.60;;;22.87;77.08;100558.06;5284799;28;20051;-56
2023/08/31 10:07:31;;;;;;;1.20;0.70;;;22.30;89.60;;;22.66;77.13;100556.66;5281368;28;20080;-55
2023/08/31 10:10:05;;;;;;;1.92;0.60;;;22.00;89.40;;;22.73;78.34;100560.06;5285374;28;20051;-56
2023/08/31 10:12:39;;;;;;;1.27;0.70;;;22.00;90.20;;;22.87;77.95;100560.72;5285549;28;20054;-55
2023/08/31 10:15:12;;;;;;;1.50;0.57;;;22.10;90.30;;;23.04;77.24;100555.09;5285598;28;20039;-55
2023/08/31 10:17:45;;;;;;;2.17;0.70;;;22.20;90.20;;;23.11;77.30;100550.50;5273454;28;20040;-58
2023/08/31 10:20:19;;;;;;;1.63;0.70;;;22.30;90.20;;;23.05;77.48;100558.63;5283269;28;20047;-55
2023/08/31 10:22:52;;;;;;;1.95;1.00;;;22.30;90.20;;;22.88;78.02;100554.50;5285368;28;20408;-57
2023/08/31 10:25:26;;;;;;;2.15;0.60;;;22.20;90.30;;;22.61;77.88;100560.31;5285359;28;20048;-57
2023/08/31 10:27:59;;;;;;;1.55;0.90;;;22.00;90.10;;;22.34;78.65;100557.22;5285210;28;20048;-59
2023/08/31 10:30:31;;;;;;;1.45;0.90;;;21.80;90.40;;;22.09;78.98;100559.41;5284719;28;20058;-57
2023/08/31 10:33:23;;;;;;;0.90;0.60;;;21.60;90.50;;;21.93;80.32;100557.88;5285482;28;20047;-58
2023/08/31 10:35:57;;;;;;;0.52;0.50;;;21.40;91.00;;;21.82;80.44;100560.69;5284447;28;20036;-59
2023/08/31 10:38:32;;;;;;;0.82;0.70;;;21.30;91.10;;;21.75;80.47;100566.13;5284811;28;20056;-57